Time,TemperatureF,DewpointF,PressureIn,WindDirection,WindDirectionDegrees,WindSpeedMPH,WindSpeedGustMPH,Humidity,HourlyPrecipIn,Conditions,Clouds,dailyrainin,SoftwareType,DateUTC
2013-05-17 00:00:00,67.0,60.0,29.83,West,265,6.0,13.0,78,-99.99,,,-99.99,,2013-05-17 04:00:00,
2013-05-17 00:23:00,67.0,60.0,29.83,West,265,6.0,13.0,78,-99.99,,,-99.99,,2013-05-17 04:23:00,
2013-05-17 00:34:00,67.0,60.0,29.83,West,265,6.0,13.0,78,-99.99,,,-99.99,,2013-05-17 04:34:00,
2013-05-17 00:43:00,67.0,60.0,29.83,West,265,6.0,13.0,78,-99.99,,,-99.99,,2013-05-17 04:43:00,
2013-05-17 00:53:00,67.0,60.0,29.83,West,265,6.0,13.0,78,-99.99,,,-99.99,,2013-05-17 04:53:00,
2013-05-17 01:00:00,65.0,56.0,29.85,WNW,299,7.0,10.0,72,-99.99,,,-99.99,,2013-05-17 05:00:00,
2013-05-17 01:32:00,65.0,56.0,29.85,WNW,299,7.0,10.0,72,-99.99,,,-99.99,,2013-05-17 05:32:00,
2013-05-17 01:43:00,65.0,56.0,29.85,WNW,299,7.0,10.0,72,-99.99,,,-99.99,,2013-05-17 05:43:00,
2013-05-17 01:52:00,65.0,56.0,29.85,WNW,299,7.0,10.0,72,-99.99,,,-99.99,,2013-05-17 05:52:00,
2013-05-17 02:00:00,64.0,48.0,29.85,NW,310,7.0,11.0,56,-99.99,,,-99.99,,2013-05-17 06:00:00,
2013-05-17 02:22:00,64.0,48.0,29.85,NW,310,7.0,11.0,56,-99.99,,,-99.99,,2013-05-17 06:22:00,
2013-05-17 02:32:00,64.0,48.0,29.85,NW,310,7.0,11.0,56,-99.99,,,-99.99,,2013-05-17 06:32:00,
2013-05-17 03:00:00,63.0,44.0,29.88,NNW,328,7.0,11.0,50,-99.99,,,-99.99,,2013-05-17 07:00:00,
2013-05-17 03:32:00,63.0,44.0,29.88,NNW,328,7.0,11.0,50,-99.99,,,-99.99,,2013-05-17 07:32:00,
2013-05-17 03:43:00,63.0,44.0,29.88,NNW,328,7.0,11.0,50,-99.99,,,-99.99,,2013-05-17 07:43:00,
2013-05-17 03:53:00,63.0,44.0,29.88,NNW,328,7.0,11.0,50,-99.99,,,-99.99,,2013-05-17 07:53:00,
2013-05-17 04:00:00,64.0,39.0,29.94,North,350,10.0,14.0,40,-99.99,,,-99.99,,2013-05-17 08:00:00,
2013-05-17 04:34:00,64.0,39.0,29.94,North,350,10.0,14.0,40,-99.99,,,-99.99,,2013-05-17 08:34:00,
2013-05-17 04:43:00,64.0,39.0,29.94,North,350,10.0,14.0,40,-99.99,,,-99.99,,2013-05-17 08:43:00,
2013-05-17 04:52:00,64.0,39.0,29.94,North,350,10.0,14.0,40,-99.99,,,-99.99,,2013-05-17 08:52:00,
2013-05-17 05:00:00,59.0,39.0,29.94,NW,323,4.0,17.0,48,-99.99,,,-99.99,,2013-05-17 09:00:00,
2013-05-17 05:23:00,59.0,39.0,29.94,NW,323,4.0,17.0,48,-99.99,,,-99.99,,2013-05-17 09:23:00,
2013-05-17 05:33:00,59.0,39.0,29.94,NW,323,4.0,17.0,48,-99.99,,,-99.99,,2013-05-17 09:33:00,
2013-05-17 05:42:00,59.0,39.0,29.94,NW,323,4.0,17.0,48,-99.99,,,-99.99,,2013-05-17 09:42:00,
2013-05-17 05:53:00,59.0,39.0,29.94,NW,323,4.0,17.0,48,-99.99,,,-99.99,,2013-05-17 09:53:00,
2013-05-17 06:00:00,55.0,42.0,29.97,NNW,328,5.0,9.0,60,-99.99,,,-99.99,,2013-05-17 10:00:00,
2013-05-17 06:23:00,55.0,42.0,29.97,NNW,328,5.0,9.0,60,-99.99,,,-99.99,,2013-05-17 10:23:00,
2013-05-17 06:33:00,55.0,42.0,29.97,NNW,328,5.0,9.0,60,-99.99,,,-99.99,,2013-05-17 10:33:00,
2013-05-17 06:42:00,55.0,42.0,29.97,NNW,328,5.0,9.0,60,-99.99,,,-99.99,,2013-05-17 10:42:00,
2013-05-17 06:54:00,55.0,42.0,29.97,NNW,328,5.0,9.0,60,-99.99,,,-99.99,,2013-05-17 10:54:00,
2013-05-17 07:00:00,60.0,42.0,30.00,WNW,300,7.0,10.0,52,-99.99,,,-99.99,,2013-05-17 11:00:00,
2013-05-17 07:34:00,60.0,42.0,30.00,WNW,300,7.0,10.0,52,-99.99,,,-99.99,,2013-05-17 11:34:00,
2013-05-17 07:42:00,60.0,42.0,30.00,WNW,300,7.0,10.0,52,-99.99,,,-99.99,,2013-05-17 11:42:00,
2013-05-17 07:53:00,60.0,42.0,30.00,WNW,300,7.0,10.0,52,-99.99,,,-99.99,,2013-05-17 11:53:00,
2013-05-17 08:00:00,62.0,43.0,30.03,NW,324,11.0,-999.0,50,-99.99,,,-99.99,,2013-05-17 12:00:00,
2013-05-17 08:23:00,62.0,43.0,30.03,NW,324,11.0,-999.0,50,-99.99,,,-99.99,,2013-05-17 12:23:00,
2013-05-17 08:33:00,62.0,43.0,30.03,NW,324,11.0,-999.0,50,-99.99,,,-99.99,,2013-05-17 12:33:00,
2013-05-17 08:43:00,62.0,43.0,30.03,NW,324,11.0,-999.0,50,-99.99,,,-99.99,,2013-05-17 12:43:00,
2013-05-17 08:53:00,62.0,43.0,30.03,NW,324,11.0,-999.0,50,-99.99,,,-99.99,,2013-05-17 12:53:00,
2013-05-17 09:00:00,64.0,42.0,30.06,NNW,337,8.0,16.0,44,-99.99,,,-99.99,,2013-05-17 13:00:00,
2013-05-17 09:23:00,64.0,42.0,30.06,NNW,337,8.0,16.0,44,-99.99,,,-99.99,,2013-05-17 13:23:00,
2013-05-17 09:33:00,64.0,42.0,30.06,NNW,337,8.0,16.0,44,-99.99,,,-99.99,,2013-05-17 13:33:00,
2013-05-17 09:42:00,64.0,42.0,30.06,NNW,337,8.0,16.0,44,-99.99,,,-99.99,,2013-05-17 13:42:00,
2013-05-17 09:52:00,64.0,42.0,30.06,NNW,337,8.0,16.0,44,-99.99,,,-99.99,,2013-05-17 13:52:00,
2013-05-17 10:00:00,66.0,43.0,30.06,NW,322,8.0,17.0,42,-99.99,,,-99.99,,2013-05-17 14:00:00,
2013-05-17 10:34:00,66.0,43.0,30.06,NW,322,8.0,17.0,42,-99.99,,,-99.99,,2013-05-17 14:34:00,
2013-05-17 10:43:00,66.0,43.0,30.06,NW,322,8.0,17.0,42,-99.99,,,-99.99,,2013-05-17 14:43:00,
2013-05-17 10:53:00,66.0,43.0,30.06,NW,322,8.0,17.0,42,-99.99,,,-99.99,,2013-05-17 14:53:00,
2013-05-17 11:00:00,67.0,43.0,30.06,NNW,334,12.0,21.0,42,-99.99,,,-99.99,,2013-05-17 15:00:00,
2013-05-17 11:37:00,67.0,43.0,30.06,NNW,334,12.0,21.0,42,-99.99,,,-99.99,,2013-05-17 15:37:00,
2013-05-17 11:47:00,67.0,43.0,30.06,NNW,334,12.0,21.0,42,-99.99,,,-99.99,,2013-05-17 15:47:00,
2013-05-17 11:57:00,67.0,43.0,30.06,NNW,334,12.0,21.0,42,-99.99,,,-99.99,,2013-05-17 15:57:00,
2013-05-17 12:00:00,68.0,43.0,30.06,NW,304,13.0,-999.0,41,-99.99,,,-99.99,,2013-05-17 16:00:00,
2013-05-17 12:26:00,68.0,43.0,30.06,NW,304,13.0,-999.0,41,-99.99,,,-99.99,,2013-05-17 16:26:00,
2013-05-17 12:37:00,68.0,43.0,30.06,NW,304,13.0,-999.0,41,-99.99,,,-99.99,,2013-05-17 16:37:00,
2013-05-17 12:50:00,68.0,43.0,30.06,NW,304,13.0,-999.0,41,-99.99,,,-99.99,,2013-05-17 16:50:00,
2013-05-17 12:56:00,68.0,43.0,30.06,NW,304,13.0,-999.0,41,-99.99,,,-99.99,,2013-05-17 16:56:00,
2013-05-17 13:00:00,69.0,-99.9,30.09,WNW,298,13.0,18.0,33,-99.99,,,-99.99,,2013-05-17 17:00:00,
2013-05-17 13:40:00,69.0,-99.9,30.09,WNW,298,13.0,18.0,33,-99.99,,,-99.99,,2013-05-17 17:40:00,
2013-05-17 13:49:00,69.0,39.0,30.09,WNW,298,13.0,18.0,33,-99.99,,,-99.99,,2013-05-17 17:49:00,
2013-05-17 14:00:00,71.0,-99.9,30.09,NW,312,8.0,19.0,34,-99.99,,,-99.99,,2013-05-17 18:00:00,
2013-05-17 14:40:00,71.0,-99.9,30.09,NW,312,8.0,19.0,34,-99.99,,,-99.99,,2013-05-17 18:40:00,
2013-05-17 14:50:00,-999.0,-99.9,30.09,NW,312,8.0,19.0,34,-99.99,,,-99.99,,2013-05-17 18:50:00,
2013-05-17 15:00:00,-999.0,-99.9,30.09,East,85,7.0,15.0,51,-99.99,,,-99.99,,2013-05-17 19:00:00,
2013-05-17 15:30:00,65.0,47.0,30.09,East,85,7.0,15.0,51,-99.99,,,-99.99,,2013-05-17 19:30:00,
2013-05-17 15:40:00,65.0,47.0,30.09,East,85,7.0,15.0,51,-99.99,,,-99.99,,2013-05-17 19:40:00,
2013-05-17 15:51:00,65.0,47.0,30.09,East,85,7.0,15.0,51,-99.99,,,-99.99,,2013-05-17 19:51:00,
2013-05-17 16:00:00,66.0,48.0,30.09,NE,50,10.0,-999.0,52,-99.99,,,-99.99,,2013-05-17 20:00:00,
2013-05-17 16:30:00,66.0,48.0,30.09,NE,50,10.0,-999.0,52,-99.99,,,-99.99,,2013-05-17 20:30:00,
2013-05-17 16:40:00,66.0,48.0,30.09,NE,50,10.0,-999.0,52,-99.99,,,-99.99,,2013-05-17 20:40:00,
2013-05-17 16:50:00,66.0,48.0,30.09,NE,50,10.0,-999.0,52,-99.99,,,-99.99,,2013-05-17 20:50:00,
2013-05-17 16:58:00,66.0,48.0,30.09,NE,50,10.0,-999.0,52,-99.99,,,-99.99,,2013-05-17 20:58:00,
2013-05-17 17:00:00,66.0,45.0,30.09,ENE,64,4.0,16.0,46,-99.99,,,-99.99,,2013-05-17 21:00:00,
2013-05-17 17:26:00,66.0,45.0,30.09,ENE,64,4.0,16.0,46,-99.99,,,-99.99,,2013-05-17 21:26:00,
2013-05-17 17:39:00,66.0,45.0,30.09,ENE,64,4.0,16.0,46,-99.99,,,-99.99,,2013-05-17 21:39:00,
2013-05-17 17:49:00,66.0,45.0,30.09,ENE,64,4.0,16.0,46,-99.99,,,-99.99,,2013-05-17 21:49:00,
2013-05-17 17:58:00,66.0,45.0,30.09,ENE,64,4.0,16.0,46,-99.99,,,-99.99,,2013-05-17 21:58:00,
2013-05-17 18:00:00,66.0,46.0,30.09,NE,49,6.0,12.0,49,-99.99,,,-99.99,,2013-05-17 22:00:00,
2013-05-17 18:28:00,66.0,46.0,30.09,NE,49,6.0,12.0,49,-99.99,,,-99.99,,2013-05-17 22:28:00,
2013-05-17 18:38:00,66.0,46.0,30.09,NE,49,6.0,12.0,49,-99.99,,,-99.99,,2013-05-17 22:38:00,
2013-05-17 18:47:00,66.0,46.0,30.09,NE,49,6.0,12.0,49,-99.99,,,-99.99,,2013-05-17 22:47:00,
2013-05-17 18:55:00,66.0,46.0,30.09,NE,49,6.0,12.0,49,-99.99,,,-99.99,,2013-05-17 22:55:00,
2013-05-17 19:00:00,65.0,44.0,30.12,NE,53,2.0,8.0,47,-99.99,,,-99.99,,2013-05-17 23:00:00,
2013-05-17 19:23:00,65.0,44.0,30.12,NE,53,2.0,8.0,47,-99.99,,,-99.99,,2013-05-17 23:23:00,
2013-05-17 19:38:00,65.0,44.0,30.12,NE,53,2.0,8.0,47,-99.99,,,-99.99,,2013-05-17 23:38:00,
2013-05-17 19:47:00,65.0,44.0,30.12,NE,53,2.0,8.0,47,-99.99,,,-99.99,,2013-05-17 23:47:00,
2013-05-17 19:54:00,65.0,44.0,30.12,NE,53,2.0,8.0,47,-99.99,,,-99.99,,2013-05-17 23:54:00,
2013-05-17 20:00:00,63.0,46.0,30.12,South,180,1.0,7.0,54,-99.99,,,-99.99,,2013-05-18 00:00:00,
2013-05-17 20:22:00,63.0,46.0,30.12,South,180,1.0,7.0,54,-99.99,,,-99.99,,2013-05-18 00:22:00,
2013-05-17 20:34:00,63.0,46.0,30.12,South,180,1.0,7.0,54,-99.99,,,-99.99,,2013-05-18 00:34:00,
2013-05-17 20:45:00,63.0,46.0,30.12,South,180,1.0,7.0,54,-99.99,,,-99.99,,2013-05-18 00:45:00,
2013-05-17 20:54:00,63.0,46.0,30.12,South,180,1.0,7.0,54,-99.99,,,-99.99,,2013-05-18 00:54:00,
2013-05-17 21:00:00,61.0,47.0,30.15,South,185,6.0,11.0,60,-99.99,,,-99.99,,2013-05-18 01:00:00,
2013-05-17 21:24:00,61.0,47.0,30.15,South,185,6.0,11.0,60,-99.99,,,-99.99,,2013-05-18 01:24:00,
2013-05-17 21:32:00,61.0,47.0,30.15,South,185,6.0,11.0,60,-99.99,,,-99.99,,2013-05-18 01:32:00,
2013-05-17 21:43:00,61.0,47.0,30.15,South,185,6.0,11.0,60,-99.99,,,-99.99,,2013-05-18 01:43:00,
2013-05-17 21:52:00,61.0,47.0,30.15,South,185,6.0,11.0,60,-99.99,,,-99.99,,2013-05-18 01:52:00,
2013-05-17 22:00:00,61.0,50.0,30.18,SSW,211,5.0,9.0,66,-99.99,,,-99.99,,2013-05-18 02:00:00,
2013-05-17 22:23:00,61.0,50.0,30.18,SSW,211,5.0,9.0,66,-99.99,,,-99.99,,2013-05-18 02:23:00,
2013-05-17 22:32:00,61.0,50.0,30.18,SSW,211,5.0,9.0,66,-99.99,,,-99.99,,2013-05-18 02:32:00,
2013-05-17 22:43:00,61.0,50.0,30.18,SSW,211,5.0,9.0,66,-99.99,,,-99.99,,2013-05-18 02:43:00,
2013-05-17 22:54:00,61.0,50.0,30.18,SSW,211,5.0,9.0,66,-99.99,,,-99.99,,2013-05-18 02:54:00,
2013-05-17 23:00:00,59.0,49.0,30.18,SW,223,2.0,9.0,69,-99.99,,,-99.99,,2013-05-18 03:00:00,
2013-05-17 23:23:00,59.0,49.0,30.18,SW,223,2.0,9.0,69,-99.99,,,-99.99,,2013-05-18 03:23:00,
2013-05-17 23:33:00,59.0,49.0,30.18,SW,223,2.0,9.0,69,-99.99,,,-99.99,,2013-05-18 03:33:00,
2013-05-17 23:43:00,59.0,49.0,30.18,SW,223,2.0,9.0,69,-99.99,,,-99.99,,2013-05-18 03:43:00,
2013-05-17 23:53:00,59.0,49.0,30.18,SW,223,2.0,9.0,69,-99.99,,,-99.99,,2013-05-18 03:53:00,